Time;durP1;ratioP1;P1;durP2;ratioP2;P2;SDS_P1;SDS_P2;PMS_P1;PMS_P2;Temp;Humidity;BMP_temperature;BMP_pressure;BME280_temperature;BME280_humidity;BME280_pressure;Samples;Min_cycle;Max_cycle;Signal;HPM_P1;HPM_P2
2022/10/29 00:01:48;;;;;;;;;;;14.30;99.90;;;;;;5071119;28;19925;-68
2022/10/29 00:04:14;;;;;;;;;;;14.30;99.90;;;;;;5103551;28;19967;-70
2022/10/29 00:06:40;;;;;;;;;;;14.30;99.90;;;;;;5070836;28;19925;-69
2022/10/29 00:09:05;;;;;;;;;;;14.20;99.90;;;;;;5070962;28;19925;-78
2022/10/29 00:11:32;;;;;;;;;;;14.20;99.90;;;;;;5069876;28;20385;-68
2022/10/29 00:13:59;;;;;;;;;;;14.20;99.90;;;;;;5070848;28;19924;-71
2022/10/29 00:16:26;;;;;;;;;;;14.10;99.90;;;;;;5104328;28;20031;-68
2022/10/29 00:18:53;;;;;;;;;;;14.10;99.90;;;;;;5074877;28;19931;-73
2022/10/29 00:21:19;;;;;;;;;;;14.10;99.90;;;;;;5073590;28;19925;-68
2022/10/29 00:23:45;;;;;;;;;;;14.10;99.90;;;;;;5073661;28;19925;-68
2022/10/29 00:26:11;;;;;;;;;;;14.10;99.90;;;;;;5074440;28;20260;-68
2022/10/29 00:28:37;;;;;;;;;;;14.00;99.90;;;;;;5074681;28;19931;-68
2022/10/29 00:31:03;;;;;;;;;;;14.00;99.90;;;;;;5107547;28;20388;-68
2022/10/29 00:33:29;;;;;;;;;;;14.00;99.90;;;;;;5074062;28;19973;-68
2022/10/29 00:35:55;;;;;;;;;;;13.90;99.90;;;;;;5074029;28;19928;-68
2022/10/29 00:38:21;;;;;;;;;;;13.90;99.90;;;;;;5074222;28;19925;-65
2022/10/29 00:40:47;;;;;;;;;;;13.90;99.90;;;;;;5072952;28;19924;-70
2022/10/29 00:43:13;;;;;;;;;;;13.90;99.90;;;;;;5073124;28;19985;-69
2022/10/29 00:45:43;;;;;;;;;;;13.80;99.90;;;;;;5074566;28;19939;-68
2022/10/29 00:48:09;;;;;;;;;;;13.90;99.90;;;;;;5074303;28;19932;-68
2022/10/29 00:50:34;;;;;;;;;;;13.80;99.90;;;;;;5073867;28;19929;-68
2022/10/29 00:53:00;;;;;;;;;;;13.80;99.90;;;;;;5072882;28;19925;-68
2022/10/29 00:55:26;;;;;;;;;;;13.80;99.90;;;;;;5073785;28;19931;-70
2022/10/29 00:57:53;;;;;;;;;;;13.80;99.90;;;;;;5074001;28;19928;-70
2022/10/29 01:00:19;;;;;;;;;;;13.90;99.90;;;;;;5073515;28;20295;-69
2022/10/29 01:02:45;;;;;;;;;;;13.90;99.90;;;;;;5074037;28;20001;-68
2022/10/29 01:05:13;;;;;;;;;;;13.90;99.90;;;;;;5073672;28;19928;-68
2022/10/29 01:07:39;;;;;;;;;;;13.80;99.90;;;;;;5073740;28;20011;-69
2022/10/29 01:10:04;;;;;;;;;;;13.80;99.90;;;;;;5073518;28;20406;-68
2022/10/29 01:12:49;;;;;;;;;;;13.80;99.90;;;;;;5073462;28;20482;-68
2022/10/29 01:15:37;;;;;;;;;;;13.80;99.90;;;;;;5073597;28;20325;-79
2022/10/29 01:18:06;;;;;;;;;;;13.60;99.90;;;;;;5072134;28;20321;-68
2022/10/29 01:20:45;;;;;;;;;;;13.80;99.90;;;;;;5073367;28;20394;-68
2022/10/29 01:23:16;;;;;;;;;;;13.80;99.90;;;;;;5073181;28;19929;-68
2022/10/29 01:25:42;;;;;;;;;;;13.80;99.90;;;;;;5073645;28;19924;-68
2022/10/29 01:28:10;;;;;;;;;;;13.80;99.90;;;;;;5072626;28;20027;-68
2022/10/29 01:30:49;;;;;;;;;;;13.80;99.90;;;;;;5072098;28;20165;-72
2022/10/29 01:33:14;;;;;;;;;;;13.80;99.90;;;;;;5073451;28;19929;-68
2022/10/29 01:35:50;;;;;;;;;;;13.50;99.90;;;;;;5073018;28;19935;-70
2022/10/29 01:38:19;;;;;;;;;;;13.70;99.90;;;;;;5073382;28;19924;-68
2022/10/29 01:40:52;;;;;;;;;;;13.70;99.90;;;;;;5072515;28;19924;-68
2022/10/29 01:43:47;;;;;;;;;;;13.70;99.90;;;;;;5072492;28;19931;-79
2022/10/29 01:46:19;;;;;;;;;;;13.80;99.90;;;;;;5071472;28;20023;-68
2022/10/29 01:48:46;;;;;;;;;;;13.70;99.90;;;;;;5073369;28;19929;-67
2022/10/29 01:51:23;;;;;;;;;;;13.70;99.90;;;;;;5072831;28;19975;-69
2022/10/29 01:53:49;;;;;;;;;;;13.70;99.90;;;;;;5073395;28;19924;-67
2022/10/29 01:56:15;;;;;;;;;;;13.70;99.90;;;;;;5073140;28;19925;-68
2022/10/29 01:58:45;;;;;;;;;;;13.70;99.90;;;;;;5072712;28;20262;-67
2022/10/29 02:01:23;;;;;;;;;;;13.70;99.90;;;;;;5073279;28;20418;-67
2022/10/29 02:03:57;;;;;;;;;;;13.70;99.90;;;;;;5072881;28;20388;-67
2022/10/29 02:06:32;;;;;;;;;;;13.70;99.90;;;;;;5072667;28;20308;-67
2022/10/29 02:09:16;;;;;;;;;;;13.70;99.90;;;;;;5072449;28;19978;-67
2022/10/29 02:11:53;;;;;;;;;;;13.70;99.90;;;;;;5072344;28;20188;-67
2022/10/29 02:14:18;;;;;;;;;;;13.70;99.90;;;;;;5072935;28;19979;-63
2022/10/29 02:16:46;;;;;;;;;;;13.60;99.90;;;;;;5072424;28;20041;-67
2022/10/29 02:19:11;;;;;;;;;;;13.70;99.90;;;;;;5072617;28;19932;-67
2022/10/29 02:21:39;;;;;;;;;;;13.60;99.90;;;;;;5104814;28;20385;-67
2022/10/29 02:24:05;;;;;;;;;;;13.60;99.90;;;;;;5072512;28;20011;-67
2022/10/29 02:26:30;;;;;;;;;;;13.60;99.90;;;;;;5088104;28;20015;-67
2022/10/29 02:28:57;;;;;;;;;;;13.50;99.90;;;;;;5072430;28;20356;-67
2022/10/29 02:31:23;;;;;;;;;;;13.50;99.90;;;;;;5072159;28;19951;-78
2022/10/29 02:33:49;;;;;;;;;;;13.60;99.90;;;;;;5072112;28;19924;-67
2022/10/29 02:36:14;;;;;;;;;;;13.50;99.90;;;;;;5104823;28;19924;-68
2022/10/29 02:38:40;;;;;;;;;;;13.60;99.90;;;;;;5070530;28;19947;-68
2022/10/29 02:41:05;;;;;;;;;;;13.60;99.90;;;;;;5071140;28;19925;-67
2022/10/29 02:43:31;;;;;;;;;;;13.60;99.90;;;;;;5071536;28;19932;-67
2022/10/29 02:46:23;;;;;;;;;;;13.60;99.90;;;;;;5070675;28;19932;-67
2022/10/29 02:48:49;;;;;;;;;;;13.60;99.90;;;;;;5070222;28;19924;-67
2022/10/29 02:51:15;;;;;;;;;;;13.60;99.90;;;;;;5071612;28;19924;-67
2022/10/29 02:53:40;;;;;;;;;;;13.50;99.90;;;;;;5071305;28;20356;-66
2022/10/29 02:56:07;;;;;;;;;;;13.50;99.90;;;;;;5071960;28;19947;-69
2022/10/29 02:58:33;;;;;;;;;;;13.50;99.90;;;;;;5071568;28;20225;-68
2022/10/29 03:00:58;;;;;;;;;;;13.50;99.90;;;;;;5071841;28;19928;-68
2022/10/29 03:03:24;;;;;;;;;;;13.50;99.90;;;;;;5071863;28;19924;-68
2022/10/29 03:05:50;;;;;;;;;;;13.50;99.90;;;;;;5071494;28;20001;-68
2022/10/29 03:08:15;;;;;;;;;;;13.50;99.90;;;;;;5087286;28;20477;-70
2022/10/29 03:10:41;;;;;;;;;;;13.50;99.90;;;;;;5070443;28;19931;-68
2022/10/29 03:13:06;;;;;;;;;;;13.50;99.90;;;;;;5070645;28;19924;-68
2022/10/29 03:15:32;;;;;;;;;;;13.50;99.90;;;;;;5104232;28;19928;-68
2022/10/29 03:17:57;;;;;;;;;;;13.50;99.90;;;;;;5071695;28;20017;-68
2022/10/29 03:20:23;;;;;;;;;;;13.40;99.90;;;;;;5071682;28;19928;-67
2022/10/29 03:22:48;;;;;;;;;;;13.50;99.90;;;;;;5087007;28;19924;-69
2022/10/29 03:25:14;;;;;;;;;;;13.50;99.90;;;;;;5071551;28;20316;-72
2022/10/29 03:27:43;;;;;;;;;;;13.40;99.90;;;;;;5071267;28;20259;-68
2022/10/29 03:30:12;;;;;;;;;;;13.50;99.90;;;;;;5103352;28;19931;-68
2022/10/29 03:32:39;;;;;;;;;;;13.40;99.90;;;;;;5069817;28;19948;-67
2022/10/29 03:35:04;;;;;;;;;;;13.50;99.90;;;;;;5071463;28;19939;-68
2022/10/29 03:37:30;;;;;;;;;;;13.70;99.90;;;;;;5070398;28;19928;-67
2022/10/29 03:39:56;;;;;;;;;;;13.40;99.90;;;;;;5070187;28;19955;-68
2022/10/29 03:42:21;;;;;;;;;;;13.40;99.90;;;;;;5071307;28;19968;-68
2022/10/29 03:44:47;;;;;;;;;;;13.40;99.90;;;;;;5070982;28;19925;-67
2022/10/29 03:47:12;;;;;;;;;;;13.40;99.90;;;;;;5070567;28;19929;-67
2022/10/29 03:49:38;;;;;;;;;;;13.30;99.90;;;;;;5103683;28;20371;-69
2022/10/29 03:52:03;;;;;;;;;;;13.30;99.90;;;;;;5072983;28;19924;-68
2022/10/29 03:54:29;;;;;;;;;;;13.30;99.90;;;;;;5075014;28;20332;-68
2022/10/29 03:56:54;;;;;;;;;;;13.30;99.90;;;;;;5075023;28;19988;-67
2022/10/29 03:59:20;;;;;;;;;;;13.30;99.90;;;;;;5108024;28;19974;-67
2022/10/29 04:01:45;;;;;;;;;;;13.20;99.90;;;;;;5074797;28;20328;-68
2022/10/29 04:04:11;;;;;;;;;;;13.20;99.90;;;;;;5107822;28;19924;-67
2022/10/29 04:06:37;;;;;;;;;;;13.20;99.90;;;;;;5073537;28;19932;-79
2022/10/29 04:09:02;;;;;;;;;;;13.30;99.90;;;;;;5074937;28;19931;-69
2022/10/29 04:11:28;;;;;;;;;;;13.20;99.90;;;;;;5107887;28;19925;-68
2022/10/29 04:13:53;;;;;;;;;;;13.00;99.90;;;;;;5074401;28;19931;-68
2022/10/29 04:16:19;;;;;;;;;;;13.20;99.90;;;;;;5075032;28;19924;-67
2022/10/29 04:18:48;;;;;;;;;;;13.20;99.90;;;;;;5074549;28;20340;-67
2022/10/29 04:21:14;;;;;;;;;;;13.20;99.90;;;;;;5075053;28;19928;-67
2022/10/29 04:23:40;;;;;;;;;;;13.20;99.90;;;;;;5074239;28;19928;-68
2022/10/29 04:26:05;;;;;;;;;;;13.10;99.90;;;;;;5074260;28;19925;-67
2022/10/29 04:28:31;;;;;;;;;;;13.10;99.90;;;;;;5073369;28;19982;-67
2022/10/29 04:30:56;;;;;;;;;;;13.10;99.90;;;;;;5074227;28;20618;-67
2022/10/29 04:33:22;;;;;;;;;;;13.10;99.90;;;;;;5074572;28;19924;-67
2022/10/29 04:35:52;;;;;;;;;;;13.10;99.90;;;;;;5074302;28;20259;-67
2022/10/29 04:38:17;;;;;;;;;;;13.10;99.90;;;;;;5074390;28;19925;-67
2022/10/29 04:40:43;;;;;;;;;;;13.10;99.90;;;;;;5089035;28;19935;-67
2022/10/29 04:43:08;;;;;;;;;;;13.00;99.90;;;;;;5107222;28;19936;-67
2022/10/29 04:45:34;;;;;;;;;;;13.00;99.90;;;;;;5089855;28;20082;-67
2022/10/29 04:48:00;;;;;;;;;;;13.00;99.90;;;;;;5089846;28;19927;-69
2022/10/29 04:50:28;;;;;;;;;;;13.00;99.90;;;;;;5072957;28;20391;-69
2022/10/29 04:53:01;;;;;;;;;;;13.10;99.90;;;;;;5073467;28;19971;-69
2022/10/29 04:55:27;;;;;;;;;;;13.00;99.90;;;;;;5073831;28;19930;-69
2022/10/29 04:57:53;;;;;;;;;;;13.00;99.90;;;;;;5106064;28;20015;-69
2022/10/29 05:00:19;;;;;;;;;;;13.10;99.90;;;;;;5072726;28;19928;-68
2022/10/29 05:02:48;;;;;;;;;;;13.10;99.90;;;;;;5073565;28;19950;-75
2022/10/29 05:05:15;;;;;;;;;;;13.10;99.90;;;;;;5072970;28;19999;-68
2022/10/29 05:07:40;;;;;;;;;;;13.10;99.90;;;;;;5073871;28;20265;-68
2022/10/29 05:10:06;;;;;;;;;;;13.10;99.90;;;;;;5073281;28;19954;-67
2022/10/29 05:12:31;;;;;;;;;;;13.10;99.90;;;;;;5072377;28;20233;-68
2022/10/29 05:14:57;;;;;;;;;;;13.10;99.90;;;;;;5105987;28;19968;-67
2022/10/29 05:17:22;;;;;;;;;;;13.10;99.90;;;;;;5072856;28;20330;-69
2022/10/29 05:19:48;;;;;;;;;;;13.10;99.90;;;;;;5072132;28;20330;-69
2022/10/29 05:22:13;;;;;;;;;;;13.10;99.90;;;;;;5106395;28;19936;-69
2022/10/29 05:24:39;;;;;;;;;;;13.10;99.90;;;;;;5073499;28;20065;-67
2022/10/29 05:27:05;;;;;;;;;;;13.10;99.90;;;;;;5072062;28;20520;-69
2022/10/29 05:29:30;;;;;;;;;;;13.10;99.90;;;;;;5073455;28;19933;-68
2022/10/29 05:31:56;;;;;;;;;;;13.10;99.90;;;;;;5073094;28;19932;-68
2022/10/29 05:34:22;;;;;;;;;;;13.10;99.90;;;;;;5072164;28;19932;-72
2022/10/29 05:36:47;;;;;;;;;;;13.10;99.90;;;;;;5072068;28;19925;-78
2022/10/29 05:39:13;;;;;;;;;;;13.10;99.90;;;;;;5072889;28;20369;-68
2022/10/29 05:41:38;;;;;;;;;;;13.00;99.90;;;;;;5073627;28;19936;-69
2022/10/29 05:44:04;;;;;;;;;;;13.00;99.90;;;;;;5072968;28;20007;-68
2022/10/29 05:46:30;;;;;;;;;;;13.10;99.90;;;;;;5105699;28;19924;-69
2022/10/29 05:48:55;;;;;;;;;;;13.10;99.90;;;;;;5071631;28;19931;-68
2022/10/29 05:51:21;;;;;;;;;;;13.00;99.90;;;;;;5071970;28;19928;-69
2022/10/29 05:53:47;;;;;;;;;;;13.00;99.90;;;;;;5072939;28;19928;-70
2022/10/29 05:56:12;;;;;;;;;;;13.00;99.90;;;;;;5072840;28;19924;-68
2022/10/29 05:58:38;;;;;;;;;;;13.10;99.90;;;;;;5088820;28;20014;-69
2022/10/29 06:01:07;;;;;;;;;;;13.00;99.90;;;;;;5071046;28;19924;-68
2022/10/29 06:03:33;;;;;;;;;;;13.00;99.90;;;;;;5072871;28;20010;-69
2022/10/29 06:05:58;;;;;;;;;;;12.90;99.90;;;;;;5105246;28;20375;-70
2022/10/29 06:08:24;;;;;;;;;;;12.90;99.90;;;;;;5072802;28;20006;-70
2022/10/29 06:10:50;;;;;;;;;;;12.90;99.90;;;;;;5072645;28;20061;-74
2022/10/29 06:13:17;;;;;;;;;;;12.90;99.90;;;;;;5072215;28;20087;-75
2022/10/29 06:15:42;;;;;;;;;;;12.90;99.90;;;;;;5071956;28;19927;-68
2022/10/29 06:18:08;;;;;;;;;;;12.90;99.90;;;;;;5104691;28;19924;-71
2022/10/29 06:20:34;;;;;;;;;;;13.00;99.90;;;;;;5072416;28;20287;-70
2022/10/29 06:23:00;;;;;;;;;;;12.90;99.90;;;;;;5071271;28;20323;-71
2022/10/29 06:25:26;;;;;;;;;;;12.90;99.90;;;;;;5105862;28;19928;-68
2022/10/29 06:27:58;;;;;;;;;;;12.90;99.90;;;;;;5073514;28;19924;-68
2022/10/29 06:30:24;;;;;;;;;;;12.90;99.90;;;;;;5073017;28;20269;-68
2022/10/29 06:32:49;;;;;;;;;;;12.90;99.90;;;;;;5072892;28;19931;-72
2022/10/29 06:35:15;;;;;;;;;;;12.90;99.90;;;;;;5105706;28;19924;-72
2022/10/29 06:37:40;;;;;;;;;;;12.90;99.90;;;;;;5072405;28;19924;-68
2022/10/29 06:40:06;;;;;;;;;;;12.90;99.90;;;;;;5070969;28;19931;-68
2022/10/29 06:42:32;;;;;;;;;;;12.90;99.90;;;;;;5105249;28;19924;-68
2022/10/29 06:44:57;;;;;;;;;;;12.90;99.90;;;;;;5071940;28;19925;-68
2022/10/29 06:47:23;;;;;;;;;;;12.90;99.90;;;;;;5072553;28;19981;-72
2022/10/29 06:49:48;;;;;;;;;;;12.90;99.90;;;;;;5072319;28;19921;-68
2022/10/29 06:52:14;;;;;;;;;;;12.90;99.90;;;;;;5071600;28;20288;-71
2022/10/29 06:54:39;;;;;;;;;;;13.00;99.90;;;;;;5072110;28;19924;-68
2022/10/29 06:57:05;;;;;;;;;;;13.00;99.90;;;;;;5070394;28;20414;-68
2022/10/29 06:59:30;;;;;;;;;;;13.00;99.90;;;;;;5072012;28;19978;-68
2022/10/29 07:01:56;;;;;;;;;;;13.00;99.90;;;;;;5072084;28;19988;-83
2022/10/29 07:04:22;;;;;;;;;;;13.00;99.90;;;;;;5071826;28;19924;-68
2022/10/29 07:06:47;;;;;;;;;;;13.00;99.90;;;;;;5072223;28;19932;-68
2022/10/29 07:09:13;;;;;;;;;;;13.00;99.90;;;;;;5071887;28;19928;-72
2022/10/29 07:11:38;;;;;;;;;;;13.00;99.90;;;;;;5087557;28;20387;-69
2022/10/29 07:14:10;;;;;;;;;;;13.10;99.90;;;;;;5071777;28;19932;-69
2022/10/29 07:16:36;;;;;;;;;;;13.10;99.90;;;;;;5104931;28;20019;-68
2022/10/29 07:19:02;;;;;;;;;;;13.10;99.90;;;;;;5087470;28;20016;-69
2022/10/29 07:21:27;;;;;;;;;;;13.10;99.90;;;;;;5071912;28;20378;-68
2022/10/29 07:23:53;;;;;;;;;;;13.10;99.90;;;;;;5071874;28;19929;-71
2022/10/29 07:26:18;;;;;;;;;;;13.10;99.90;;;;;;5086459;28;20587;-69
2022/10/29 07:28:44;;;;;;;;;;;13.10;99.90;;;;;;5071693;28;19978;-68
2022/10/29 07:31:09;;;;;;;;;;;13.10;99.90;;;;;;5071778;28;20023;-68
2022/10/29 07:33:35;;;;;;;;;;;13.10;99.90;;;;;;5071623;28;19924;-68
2022/10/29 07:36:01;;;;;;;;;;;13.20;99.90;;;;;;5071368;28;20015;-75
2022/10/29 07:38:26;;;;;;;;;;;13.20;99.90;;;;;;5104553;28;19986;-68
2022/10/29 07:40:52;;;;;;;;;;;13.20;99.90;;;;;;5071465;28;19925;-73
2022/10/29 07:43:18;;;;;;;;;;;13.20;99.90;;;;;;5071250;28;19925;-69
2022/10/29 07:45:45;;;;;;;;;;;13.30;99.90;;;;;;5071425;28;19931;-68
2022/10/29 07:48:10;;;;;;;;;;;13.30;99.90;;;;;;5071198;28;19931;-71
2022/10/29 07:50:37;;;;;;;;;;;13.30;99.90;;;;;;5070149;28;20258;-69
2022/10/29 07:53:03;;;;;;;;;;;13.70;99.90;;;;;;5071415;28;19931;-77
2022/10/29 07:55:29;;;;;;;;;;;13.40;99.90;;;;;;5071479;28;19928;-68
2022/10/29 07:57:57;;;;;;;;;;;13.40;99.90;;;;;;5070131;28;19932;-70
2022/10/29 08:00:26;;;;;;;;;;;13.40;99.90;;;;;;5071103;28;20089;-69
2022/10/29 08:02:53;;;;;;;;;;;13.40;99.90;;;;;;5070385;28;20032;-66
2022/10/29 08:05:18;;;;;;;;;;;13.50;99.90;;;;;;5104046;28;19932;-72
2022/10/29 08:07:44;;;;;;;;;;;13.60;99.90;;;;;;5071412;28;20034;-69
2022/10/29 08:10:09;;;;;;;;;;;13.60;99.90;;;;;;5071083;28;20265;-69
2022/10/29 08:12:35;;;;;;;;;;;13.70;99.90;;;;;;5071251;28;19963;-68
2022/10/29 08:15:01;;;;;;;;;;;13.70;99.90;;;;;;5071682;28;19931;-68
2022/10/29 08:17:28;;;;;;;;;;;13.70;99.90;;;;;;5071089;28;19924;-68
2022/10/29 08:19:53;;;;;;;;;;;13.70;99.90;;;;;;5103960;28;19928;-68
2022/10/29 08:22:19;;;;;;;;;;;13.70;99.90;;;;;;5069646;28;19954;-68
2022/10/29 08:24:45;;;;;;;;;;;13.70;99.90;;;;;;5103484;28;19924;-68
2022/10/29 08:27:10;;;;;;;;;;;13.80;99.90;;;;;;5071440;28;19936;-67
2022/10/29 08:29:36;;;;;;;;;;;13.80;99.90;;;;;;5104144;28;19925;-68
2022/10/29 08:32:01;;;;;;;;;;;13.80;99.90;;;;;;5071314;28;19933;-68
2022/10/29 08:34:27;;;;;;;;;;;13.90;99.90;;;;;;5070588;28;19924;-69
2022/10/29 08:36:52;;;;;;;;;;;13.90;99.90;;;;;;5071578;28;19929;-69
2022/10/29 08:39:18;;;;;;;;;;;14.00;99.90;;;;;;5074541;28;19925;-68
2022/10/29 08:42:02;;;;;;;;;;;14.00;99.90;;;;;;5073581;28;20397;-69
2022/10/29 08:44:32;;;;;;;;;;;14.10;99.90;;;;;;5074869;28;20466;-68
2022/10/29 08:47:08;;;;;;;;;;;13.80;99.90;;;;;;5090221;28;20019;-68
2022/10/29 08:49:40;;;;;;;;;;;14.20;99.90;;;;;;5074567;28;19924;-72
2022/10/29 08:52:08;;;;;;;;;;;14.20;99.90;;;;;;5074331;28;19994;-68
2022/10/29 08:54:38;;;;;;;;;;;14.20;99.90;;;;;;5074449;28;20091;-68
2022/10/29 08:57:07;;;;;;;;;;;14.30;99.90;;;;;;5107538;28;19935;-68
2022/10/29 08:59:36;;;;;;;;;;;14.30;99.90;;;;;;5106696;28;20263;-71
2022/10/29 09:02:01;;;;;;;;;;;14.30;99.90;;;;;;5074549;28;20299;-69
2022/10/29 09:04:34;;;;;;;;;;;14.50;99.90;;;;;;5073226;28;19925;-68
2022/10/29 09:07:20;;;;;;;;;;;14.50;99.90;;;;;;5074330;28;20011;-68
2022/10/29 09:09:48;;;;;;;;;;;14.50;99.90;;;;;;5074089;28;20011;-68
2022/10/29 09:12:51;;;;;;;;;;;14.60;99.90;;;;;;5073662;28;20318;-69
2022/10/29 09:15:29;;;;;;;;;;;14.60;99.90;;;;;;5071420;28;20023;-69
2022/10/29 09:18:03;;;;;;;;;;;14.60;99.90;;;;;;5055036;28;19931;-68
2022/10/29 09:20:35;;;;;;;;;;;14.50;99.90;;;;;;5072631;28;19966;-69
2022/10/29 09:23:10;;;;;;;;;;;14.50;99.90;;;;;;5072648;28;19960;-69
2022/10/29 09:25:42;;;;;;;;;;;14.60;99.90;;;;;;5072555;28;19924;-70
2022/10/29 09:28:34;;;;;;;;;;;14.60;99.90;;;;;;5072841;28;19924;-68
2022/10/29 09:31:08;;;;;;;;;;;14.60;99.90;;;;;;5072544;28;19986;-70
2022/10/29 09:33:33;;;;;;;;;;;14.50;99.90;;;;;;5073574;28;20314;-72
2022/10/29 09:35:59;;;;;;;;;;;14.60;99.90;;;;;;5105987;28;19930;-71
2022/10/29 09:38:27;;;;;;;;;;;14.60;99.90;;;;;;5072399;28;19925;-68
2022/10/29 09:40:55;;;;;;;;;;;14.60;99.90;;;;;;5073261;28;20470;-69
2022/10/29 09:43:27;;;;;;;;;;;14.60;99.90;;;;;;5072331;28;20395;-70
2022/10/29 09:45:52;;;;;;;;;;;14.70;99.90;;;;;;5089078;28;20325;-69
2022/10/29 09:48:20;;;;;;;;;;;14.70;99.90;;;;;;5072726;28;19978;-69
2022/10/29 09:51:01;;;;;;;;;;;14.70;99.90;;;;;;5072506;28;20015;-70
2022/10/29 09:53:28;;;;;;;;;;;14.80;99.90;;;;;;5073062;28;20011;-68
2022/10/29 09:55:54;;;;;;;;;;;14.80;99.90;;;;;;5073133;28;20403;-70
2022/10/29 09:58:24;;;;;;;;;;;14.90;99.90;;;;;;5088757;28;19955;-69
2022/10/29 10:00:50;;;;;;;;;;;14.80;99.90;;;;;;5072902;28;20358;-68
2022/10/29 10:03:25;;;;;;;;;;;14.80;99.90;;;;;;5105869;28;20007;-69
2022/10/29 10:06:01;;;;;;;;;;;14.90;99.90;;;;;;5072829;28;20011;-69
2022/10/29 10:08:27;;;;;;;;;;;14.80;99.90;;;;;;5071541;28;19975;-72
2022/10/29 10:10:58;;;;;;;;;;;14.80;99.90;;;;;;5071908;28;20095;-69
2022/10/29 10:13:26;;;;;;;;;;;14.90;99.90;;;;;;5072045;28;19924;-69
2022/10/29 10:15:52;;;;;;;;;;;14.90;99.90;;;;;;5071398;28;19943;-69
2022/10/29 10:18:37;;;;;;;;;;;14.90;99.90;;;;;;5071207;28;19925;-85
2022/10/29 10:21:04;;;;;;;;;;;15.00;99.90;;;;;;5071385;28;19928;-69
2022/10/29 10:23:42;;;;;;;;;;;15.10;99.90;;;;;;5072755;28;20005;-68
2022/10/29 10:26:27;;;;;;;;;;;15.10;99.90;;;;;;5072653;28;19943;-68
2022/10/29 10:29:03;;;;;;;;;;;15.20;99.90;;;;;;5072768;28;19954;-68
2022/10/29 10:31:29;;;;;;;;;;;15.20;99.90;;;;;;5072784;28;20013;-69
2022/10/29 10:33:55;;;;;;;;;;;15.30;99.90;;;;;;5072644;28;19987;-69
2022/10/29 10:36:22;;;;;;;;;;;15.30;99.90;;;;;;5105227;28;19950;-85
2022/10/29 10:38:51;;;;;;;;;;;15.40;99.90;;;;;;5072786;28;19964;-68
2022/10/29 10:41:22;;;;;;;;;;;15.50;99.90;;;;;;5072912;28;19932;-68
2022/10/29 10:43:48;;;;;;;;;;;15.60;99.90;;;;;;5072654;28;19977;-69
2022/10/29 10:46:23;;;;;;;;;;;15.70;99.90;;;;;;5072466;28;20315;-73
2022/10/29 10:48:55;;;;;;;;;;;15.80;99.90;;;;;;5072792;28;20298;-73
2022/10/29 10:51:21;;;;;;;;;;;15.80;99.90;;;;;;5072164;28;19947;-69
2022/10/29 10:53:47;;;;;;;;;;;15.90;99.90;;;;;;5072472;28;20372;-69
2022/10/29 10:56:18;;;;;;;;;;;16.00;99.90;;;;;;5072585;28;19928;-72
2022/10/29 10:59:04;;;;;;;;;;;16.00;99.90;;;;;;5071364;28;19936;-69
2022/10/29 11:01:41;;;;;;;;;;;16.10;99.90;;;;;;5070277;28;19932;-68
2022/10/29 11:04:06;;;;;;;;;;;16.10;99.90;;;;;;5105006;28;19943;-68
2022/10/29 11:06:38;;;;;;;;;;;16.20;99.90;;;;;;5072204;28;19940;-68
2022/10/29 11:09:19;;;;;;;;;;;16.40;99.90;;;;;;5072464;28;20057;-70
2022/10/29 11:11:54;;;;;;;;;;;16.40;99.90;;;;;;5071841;28;19925;-68
2022/10/29 11:14:30;;;;;;;;;;;16.50;99.90;;;;;;5071224;28;19986;-68
2022/10/29 11:16:57;;;;;;;;;;;16.50;99.90;;;;;;5071691;28;20407;-68
2022/10/29 11:19:28;;;;;;;;;;;16.60;99.90;;;;;;5104910;28;19967;-69
2022/10/29 11:21:57;;;;;;;;;;;16.60;99.90;;;;;;5071228;28;19977;-68
2022/10/29 11:24:22;;;;;;;;;;;16.70;99.90;;;;;;5071176;28;19928;-68
2022/10/29 11:27:01;;;;;;;;;;;16.70;99.90;;;;;;5071532;28;19924;-68
2022/10/29 11:29:30;;;;;;;;;;;16.80;99.90;;;;;;5070331;28;19977;-75
2022/10/29 11:31:59;;;;;;;;;;;16.80;99.90;;;;;;5071841;28;20295;-68
2022/10/29 11:34:39;;;;;;;;;;;16.90;99.90;;;;;;5104301;28;20263;-68
2022/10/29 11:37:14;;;;;;;;;;;16.90;99.90;;;;;;5071386;28;19954;-68
2022/10/29 11:39:49;;;;;;;;;;;16.90;99.90;;;;;;5070936;28;19968;-76
2022/10/29 11:42:14;;;;;;;;;;;17.00;99.90;;;;;;5071141;28;20400;-68
2022/10/29 11:44:40;;;;;;;;;;;17.00;99.90;;;;;;5071409;28;19933;-67
2022/10/29 11:47:29;;;;;;;;;;;17.10;99.90;;;;;;5070397;28;20398;-68
2022/10/29 11:50:13;;;;;;;;;;;17.20;99.90;;;;;;5071872;28;20019;-68
2022/10/29 11:52:41;;;;;;;;;;;17.20;99.90;;;;;;5071244;28;19929;-68
2022/10/29 11:55:10;;;;;;;;;;;17.30;99.90;;;;;;5070573;28;19982;-70
2022/10/29 11:57:38;;;;;;;;;;;17.30;99.90;;;;;;5070314;28;19925;-68
2022/10/29 12:00:16;;;;;;;;;;;17.40;99.90;;;;;;5071642;28;19975;-68
2022/10/29 12:03:02;;;;;;;;;;;17.50;99.90;;;;;;5071487;28;19928;-68
2022/10/29 12:05:55;;;;;;;;;;;17.60;99.90;;;;;;5070576;28;20340;-68
2022/10/29 12:08:36;;;;;;;;;;;17.70;99.90;;;;;;5071649;28;19990;-68
2022/10/29 12:11:11;;;;;;;;;;;17.70;99.90;;;;;;5071544;28;20007;-68
2022/10/29 12:13:43;;;;;;;;;;;17.70;99.90;;;;;;5074508;28;20295;-68
2022/10/29 12:16:12;;;;;;;;;;;17.70;99.90;;;;;;5108350;28;20406;-69
2022/10/29 12:18:50;;;;;;;;;;;17.60;99.90;;;;;;5075459;28;19924;-70
2022/10/29 12:21:15;;;;;;;;;;;17.70;99.90;;;;;;5074138;28;19924;-68
2022/10/29 12:23:59;;;;;;;;;;;17.60;99.90;;;;;;5074199;28;19944;-68
2022/10/29 12:26:30;;;;;;;;;;;17.60;99.90;;;;;;5074114;28;20325;-69
2022/10/29 12:29:04;;;;;;;;;;;17.60;99.90;;;;;;5090601;28;20145;-69
2022/10/29 12:31:34;;;;;;;;;;;17.50;99.90;;;;;;5075431;28;19955;-69
2022/10/29 12:34:04;;;;;;;;;;;17.60;99.90;;;;;;5075300;28;20043;-68
2022/10/29 12:36:30;;;;;;;;;;;17.50;99.90;;;;;;5074845;28;19924;-69
2022/10/29 12:38:56;;;;;;;;;;;17.60;99.90;;;;;;5073742;28;20397;-68
2022/10/29 12:41:24;;;;;;;;;;;17.60;99.90;;;;;;5107881;28;20394;-69
2022/10/29 12:43:52;;;;;;;;;;;17.50;99.90;;;;;;5073499;28;19958;-72
2022/10/29 12:46:22;;;;;;;;;;;17.50;99.90;;;;;;5074972;28;20349;-71
2022/10/29 12:48:55;;;;;;;;;;;17.50;99.90;;;;;;5073749;28;19924;-68
2022/10/29 12:51:32;;;;;;;;;;;17.50;99.90;;;;;;5074712;28;20019;-72
2022/10/29 12:54:17;;;;;;;;;;;17.60;99.90;;;;;;5090136;28;19971;-69
2022/10/29 12:56:43;;;;;;;;;;;17.80;99.90;;;;;;5074434;28;20449;-68
2022/10/29 12:59:23;;;;;;;;;;;17.70;99.90;;;;;;5073673;28;20041;-68
2022/10/29 13:01:53;;;;;;;;;;;17.70;99.90;;;;;;5073267;28;20331;-70
2022/10/29 13:04:26;;;;;;;;;;;17.80;99.90;;;;;;5074531;28;19924;-68
2022/10/29 13:06:56;;;;;;;;;;;17.80;99.90;;;;;;5073242;28;19924;-72
2022/10/29 13:09:24;;;;;;;;;;;17.90;99.90;;;;;;5074528;28;19925;-69
2022/10/29 13:12:09;;;;;;;;;;;17.80;99.90;;;;;;5073186;28;19924;-69
2022/10/29 13:14:40;;;;;;;;;;;17.80;99.90;;;;;;5073153;28;19987;-70
2022/10/29 13:17:24;;;;;;;;;;;17.70;99.90;;;;;;5074403;28;19925;-70
2022/10/29 13:19:55;;;;;;;;;;;17.80;99.90;;;;;;5073790;28;19924;-69
2022/10/29 13:22:50;;;;;;;;;;;17.80;99.90;;;;;;5107384;28;20335;-70
2022/10/29 13:25:27;;;;;;;;;;;17.80;99.90;;;;;;5071798;28;19928;-70
2022/10/29 13:27:53;;;;;;;;;;;17.90;99.90;;;;;;5073880;28;20394;-69
2022/10/29 13:30:26;;;;;;;;;;;17.90;99.90;;;;;;5074036;28;19931;-67
2022/10/29 13:32:52;;;;;;;;;;;18.00;99.90;;;;;;5073839;28;19970;-69
2022/10/29 13:35:19;;;;;;;;;;;18.10;99.90;;;;;;5073248;28;19924;-69
2022/10/29 13:37:44;;;;;;;;;;;18.10;99.90;;;;;;5106487;28;19932;-69
2022/10/29 13:40:22;;;;;;;;;;;18.10;99.90;;;;;;5073628;28;19924;-69
2022/10/29 13:43:08;;;;;;;;;;;18.20;99.90;;;;;;5089092;28;19925;-71
2022/10/29 13:45:35;;;;;;;;;;;18.30;99.90;;;;;;5072829;28;20023;-67
2022/10/29 13:48:03;;;;;;;;;;;18.30;99.90;;;;;;5073264;28;19925;-69
2022/10/29 13:50:29;;;;;;;;;;;18.40;99.90;;;;;;5073480;28;19928;-66
2022/10/29 13:52:57;;;;;;;;;;;18.40;99.90;;;;;;5105807;28;20326;-66
2022/10/29 13:55:24;;;;;;;;;;;18.40;99.90;;;;;;5073567;28;19928;-67
2022/10/29 13:57:52;;;;;;;;;;;18.50;99.90;;;;;;5106050;28;20330;-67
2022/10/29 14:00:19;;;;;;;;;;;18.50;99.90;;;;;;5073508;28;19924;-67
2022/10/29 14:02:47;;;;;;;;;;;18.50;99.90;;;;;;5073085;28;20450;-67
2022/10/29 14:05:24;;;;;;;;;;;18.60;99.90;;;;;;5073076;28;20448;-67
2022/10/29 14:07:59;;;;;;;;;;;18.60;99.90;;;;;;5073100;28;19925;-67
2022/10/29 14:10:56;;;;;;;;;;;18.60;99.90;;;;;;5073296;28;19970;-67
2022/10/29 14:13:34;;;;;;;;;;;18.60;99.90;;;;;;5072565;28;20310;-67
2022/10/29 14:16:01;;;;;;;;;;;18.70;99.90;;;;;;5072497;28;20233;-68
2022/10/29 14:18:27;;;;;;;;;;;18.70;99.90;;;;;;5072957;28;19924;-68
2022/10/29 14:20:54;;;;;;;;;;;18.70;99.90;;;;;;5071309;28;19929;-68
2022/10/29 14:23:19;;;;;;;;;;;18.70;99.90;;;;;;5072851;28;19932;-68
2022/10/29 14:25:49;;;;;;;;;;;18.70;99.90;;;;;;5072723;28;19925;-70
2022/10/29 14:28:17;;;;;;;;;;;18.70;99.90;;;;;;5072624;28;20279;-68